sensor_id;sensor_type;location;lat;lon;timestamp;P1;durP1;ratioP1;P2;durP2;ratioP2
10910;SDS011;5508;49.150;11.030;2022-07-25T00:02:12;11.90;;;10.53;;
10910;SDS011;5508;49.150;11.030;2022-07-25T00:05:13;11.93;;;10.63;;
10910;SDS011;5508;49.150;11.030;2022-07-25T00:08:14;11.00;;;9.90;;
10910;SDS011;5508;49.150;11.030;2022-07-25T00:11:14;12.37;;;11.17;;
10910;SDS011;5508;49.150;11.030;2022-07-25T00:14:15;11.10;;;10.00;;
10910;SDS011;5508;49.150;11.030;2022-07-25T00:17:15;10.97;;;9.97;;
10910;SDS011;5508;49.150;11.030;2022-07-25T00:20:16;11.07;;;9.80;;
10910;SDS011;5508;49.150;11.030;2022-07-25T00:23:17;10.57;;;9.57;;
10910;SDS011;5508;49.150;11.030;2022-07-25T00:26:17;11.10;;;10.10;;
10910;SDS011;5508;49.150;11.030;2022-07-25T00:29:18;11.97;;;10.83;;
10910;SDS011;5508;49.150;11.030;2022-07-25T00:32:19;10.97;;;9.87;;
10910;SDS011;5508;49.150;11.030;2022-07-25T00:35:19;13.17;;;10.30;;
10910;SDS011;5508;49.150;11.030;2022-07-25T00:38:20;10.83;;;9.93;;
10910;SDS011;5508;49.150;11.030;2022-07-25T00:41:20;12.77;;;11.23;;
10910;SDS011;5508;49.150;11.030;2022-07-25T00:44:24;11.80;;;10.70;;
10910;SDS011;5508;49.150;11.030;2022-07-25T00:47:26;11.37;;;10.37;;
10910;SDS011;5508;49.150;11.030;2022-07-25T00:50:27;11.90;;;10.50;;
10910;SDS011;5508;49.150;11.030;2022-07-25T00:53:28;11.50;;;10.33;;
10910;SDS011;5508;49.150;11.030;2022-07-25T00:56:28;12.00;;;10.80;;
10910;SDS011;5508;49.150;11.030;2022-07-25T00:59:29;11.97;;;10.90;;
10910;SDS011;5508;49.150;11.030;2022-07-25T01:02:30;10.67;;;9.77;;
10910;SDS011;5508;49.150;11.030;2022-07-25T01:05:30;11.30;;;10.27;;
10910;SDS011;5508;49.150;11.030;2022-07-25T01:08:31;11.07;;;10.07;;
10910;SDS011;5508;49.150;11.030;2022-07-25T01:11:31;11.37;;;10.37;;
10910;SDS011;5508;49.150;11.030;2022-07-25T01:14:32;11.30;;;10.30;;
10910;SDS011;5508;49.150;11.030;2022-07-25T01:17:33;11.47;;;10.43;;
10910;SDS011;5508;49.150;11.030;2022-07-25T01:20:33;12.77;;;11.57;;
10910;SDS011;5508;49.150;11.030;2022-07-25T01:23:34;12.60;;;11.33;;
10910;SDS011;5508;49.150;11.030;2022-07-25T01:26:35;14.43;;;11.60;;
10910;SDS011;5508;49.150;11.030;2022-07-25T01:29:36;13.63;;;11.03;;
10910;SDS011;5508;49.150;11.030;2022-07-25T01:32:36;11.60;;;10.50;;
10910;SDS011;5508;49.150;11.030;2022-07-25T01:35:37;12.07;;;10.77;;
10910;SDS011;5508;49.150;11.030;2022-07-25T01:38:38;11.37;;;10.27;;
10910;SDS011;5508;49.150;11.030;2022-07-25T01:41:38;12.27;;;11.17;;
10910;SDS011;5508;49.150;11.030;2022-07-25T01:44:39;11.93;;;10.73;;
10910;SDS011;5508;49.150;11.030;2022-07-25T01:47:42;13.20;;;11.83;;
10910;SDS011;5508;49.150;11.030;2022-07-25T01:50:43;12.67;;;11.37;;
10910;SDS011;5508;49.150;11.030;2022-07-25T01:53:44;12.87;;;11.73;;
10910;SDS011;5508;49.150;11.030;2022-07-25T01:56:44;13.20;;;11.90;;
10910;SDS011;5508;49.150;11.030;2022-07-25T01:59:45;13.53;;;12.23;;
10910;SDS011;5508;49.150;11.030;2022-07-25T02:02:46;12.47;;;11.27;;
10910;SDS011;5508;49.150;11.030;2022-07-25T02:05:49;12.13;;;11.03;;
10910;SDS011;5508;49.150;11.030;2022-07-25T02:08:49;14.07;;;11.10;;
10910;SDS011;5508;49.150;11.030;2022-07-25T02:11:50;12.63;;;11.53;;
10910;SDS011;5508;49.150;11.030;2022-07-25T02:14:50;12.50;;;11.40;;
10910;SDS011;5508;49.150;11.030;2022-07-25T02:17:51;13.00;;;11.83;;
10910;SDS011;5508;49.150;11.030;2022-07-25T02:20:52;12.90;;;11.57;;
10910;SDS011;5508;49.150;11.030;2022-07-25T02:23:53;13.30;;;11.90;;
10910;SDS011;5508;49.150;11.030;2022-07-25T02:26:53;12.43;;;11.17;;
10910;SDS011;5508;49.150;11.030;2022-07-25T02:29:54;12.40;;;11.30;;
10910;SDS011;5508;49.150;11.030;2022-07-25T02:32:54;12.63;;;11.40;;
10910;SDS011;5508;49.150;11.030;2022-07-25T02:35:55;13.63;;;11.10;;
10910;SDS011;5508;49.150;11.030;2022-07-25T02:38:55;12.00;;;11.00;;
10910;SDS011;5508;49.150;11.030;2022-07-25T02:41:56;12.37;;;11.27;;
10910;SDS011;5508;49.150;11.030;2022-07-25T02:44:56;12.93;;;11.47;;
10910;SDS011;5508;49.150;11.030;2022-07-25T02:47:57;11.37;;;10.37;;
10910;SDS011;5508;49.150;11.030;2022-07-25T02:50:58;12.20;;;11.20;;
10910;SDS011;5508;49.150;11.030;2022-07-25T02:53:58;12.23;;;10.67;;
10910;SDS011;5508;49.150;11.030;2022-07-25T02:56:59;12.97;;;11.77;;
10910;SDS011;5508;49.150;11.030;2022-07-25T02:59:59;12.53;;;11.27;;
10910;SDS011;5508;49.150;11.030;2022-07-25T03:03:00;12.60;;;11.43;;
10910;SDS011;5508;49.150;11.030;2022-07-25T03:06:01;13.17;;;11.87;;
10910;SDS011;5508;49.150;11.030;2022-07-25T03:09:02;12.07;;;10.90;;
10910;SDS011;5508;49.150;11.030;2022-07-25T03:12:03;13.87;;;12.57;;
10910;SDS011;5508;49.150;11.030;2022-07-25T03:15:04;12.23;;;11.13;;
10910;SDS011;5508;49.150;11.030;2022-07-25T03:18:06;13.63;;;11.97;;
10910;SDS011;5508;49.150;11.030;2022-07-25T03:21:07;13.97;;;12.63;;
10910;SDS011;5508;49.150;11.030;2022-07-25T03:24:07;13.07;;;11.63;;
10910;SDS011;5508;49.150;11.030;2022-07-25T03:27:08;12.83;;;11.67;;
10910;SDS011;5508;49.150;11.030;2022-07-25T03:30:12;13.37;;;12.17;;
10910;SDS011;5508;49.150;11.030;2022-07-25T03:33:13;13.60;;;12.27;;
10910;SDS011;5508;49.150;11.030;2022-07-25T03:36:13;13.97;;;12.30;;
10910;SDS011;5508;49.150;11.030;2022-07-25T03:39:14;13.27;;;12.03;;
10910;SDS011;5508;49.150;11.030;2022-07-25T03:42:14;13.17;;;11.87;;
10910;SDS011;5508;49.150;11.030;2022-07-25T03:45:15;14.17;;;12.63;;
10910;SDS011;5508;49.150;11.030;2022-07-25T03:48:16;13.13;;;11.57;;
10910;SDS011;5508;49.150;11.030;2022-07-25T03:51:17;13.67;;;12.47;;
10910;SDS011;5508;49.150;11.030;2022-07-25T03:54:17;14.60;;;12.93;;
10910;SDS011;5508;49.150;11.030;2022-07-25T03:57:18;14.20;;;12.90;;
10910;SDS011;5508;49.150;11.030;2022-07-25T04:00:18;13.20;;;11.93;;
10910;SDS011;5508;49.150;11.030;2022-07-25T04:03:19;14.07;;;12.63;;
10910;SDS011;5508;49.150;11.030;2022-07-25T04:06:20;14.27;;;12.87;;
10910;SDS011;5508;49.150;11.030;2022-07-25T04:09:22;14.43;;;13.03;;
10910;SDS011;5508;49.150;11.030;2022-07-25T04:12:22;14.30;;;12.80;;
10910;SDS011;5508;49.150;11.030;2022-07-25T04:15:23;13.20;;;12.00;;
10910;SDS011;5508;49.150;11.030;2022-07-25T04:18:24;16.03;;;12.43;;
10910;SDS011;5508;49.150;11.030;2022-07-25T04:21:24;14.17;;;12.47;;
10910;SDS011;5508;49.150;11.030;2022-07-25T04:24:25;15.10;;;13.40;;
10910;SDS011;5508;49.150;11.030;2022-07-25T04:27:26;14.40;;;13.07;;
10910;SDS011;5508;49.150;11.030;2022-07-25T04:30:26;14.10;;;12.70;;
10910;SDS011;5508;49.150;11.030;2022-07-25T04:33:27;13.20;;;11.67;;
10910;SDS011;5508;49.150;11.030;2022-07-25T04:36:28;14.53;;;13.23;;
10910;SDS011;5508;49.150;11.030;2022-07-25T04:39:28;15.17;;;13.07;;
10910;SDS011;5508;49.150;11.030;2022-07-25T04:42:29;14.10;;;12.70;;
10910;SDS011;5508;49.150;11.030;2022-07-25T04:45:30;13.67;;;12.43;;
10910;SDS011;5508;49.150;11.030;2022-07-25T04:48:31;14.67;;;12.63;;
10910;SDS011;5508;49.150;11.030;2022-07-25T04:51:32;13.87;;;12.47;;
10910;SDS011;5508;49.150;11.030;2022-07-25T04:54:32;13.67;;;12.27;;
10910;SDS011;5508;49.150;11.030;2022-07-25T04:57:33;19.80;;;13.20;;
10910;SDS011;5508;49.150;11.030;2022-07-25T05:00:34;16.17;;;13.90;;
10910;SDS011;5508;49.150;11.030;2022-07-25T05:03:35;14.87;;;13.37;;
10910;SDS011;5508;49.150;11.030;2022-07-25T05:06:36;15.57;;;13.90;;
10910;SDS011;5508;49.150;11.030;2022-07-25T05:09:36;14.97;;;13.50;;
10910;SDS011;5508;49.150;11.030;2022-07-25T05:12:37;18.13;;;14.57;;
10910;SDS011;5508;49.150;11.030;2022-07-25T05:15:38;15.50;;;13.87;;
10910;SDS011;5508;49.150;11.030;2022-07-25T05:18:38;16.83;;;15.10;;
10910;SDS011;5508;49.150;11.030;2022-07-25T05:21:39;15.07;;;13.47;;
10910;SDS011;5508;49.150;11.030;2022-07-25T05:24:40;15.03;;;13.47;;
10910;SDS011;5508;49.150;11.030;2022-07-25T05:27:40;17.60;;;13.90;;
10910;SDS011;5508;49.150;11.030;2022-07-25T05:30:41;17.10;;;13.90;;
10910;SDS011;5508;49.150;11.030;2022-07-25T05:33:41;15.80;;;13.23;;
10910;SDS011;5508;49.150;11.030;2022-07-25T05:36:42;14.67;;;13.23;;
10910;SDS011;5508;49.150;11.030;2022-07-25T05:39:43;15.43;;;12.30;;
10910;SDS011;5508;49.150;11.030;2022-07-25T05:42:43;13.77;;;11.70;;
10910;SDS011;5508;49.150;11.030;2022-07-25T05:45:44;12.87;;;11.77;;
10910;SDS011;5508;49.150;11.030;2022-07-25T05:48:46;11.03;;;10.03;;
10910;SDS011;5508;49.150;11.030;2022-07-25T05:51:46;10.53;;;9.43;;
10910;SDS011;5508;49.150;11.030;2022-07-25T05:54:47;9.60;;;8.60;;
10910;SDS011;5508;49.150;11.030;2022-07-25T05:57:48;9.83;;;8.97;;
10910;SDS011;5508;49.150;11.030;2022-07-25T06:00:48;9.97;;;7.50;;
10910;SDS011;5508;49.150;11.030;2022-07-25T06:03:50;9.53;;;8.40;;
10910;SDS011;5508;49.150;11.030;2022-07-25T06:06:53;7.67;;;6.83;;
10910;SDS011;5508;49.150;11.030;2022-07-25T06:09:54;9.70;;;7.10;;
10910;SDS011;5508;49.150;11.030;2022-07-25T06:12:54;7.40;;;6.80;;
10910;SDS011;5508;49.150;11.030;2022-07-25T06:15:55;8.23;;;7.43;;
10910;SDS011;5508;49.150;11.030;2022-07-25T06:18:55;8.88;;;7.97;;
10910;SDS011;5508;49.150;11.030;2022-07-25T06:21:56;7.90;;;7.00;;
10910;SDS011;5508;49.150;11.030;2022-07-25T06:24:57;7.82;;;7.22;;
10910;SDS011;5508;49.150;11.030;2022-07-25T06:27:57;8.15;;;7.38;;
10910;SDS011;5508;49.150;11.030;2022-07-25T06:30:58;7.88;;;7.18;;
10910;SDS011;5508;49.150;11.030;2022-07-25T06:33:59;9.13;;;6.88;;
10910;SDS011;5508;49.150;11.030;2022-07-25T06:36:59;8.38;;;6.60;;
10910;SDS011;5508;49.150;11.030;2022-07-25T06:40:00;8.05;;;7.25;;
10910;SDS011;5508;49.150;11.030;2022-07-25T06:43:00;7.70;;;7.00;;
10910;SDS011;5508;49.150;11.030;2022-07-25T06:46:03;8.35;;;7.13;;
10910;SDS011;5508;49.150;11.030;2022-07-25T06:49:04;7.95;;;7.03;;
10910;SDS011;5508;49.150;11.030;2022-07-25T06:52:05;8.07;;;7.28;;
10910;SDS011;5508;49.150;11.030;2022-07-25T06:55:07;9.50;;;6.40;;
10910;SDS011;5508;49.150;11.030;2022-07-25T06:58:08;10.00;;;6.82;;
10910;SDS011;5508;49.150;11.030;2022-07-25T07:01:09;10.68;;;7.45;;
10910;SDS011;5508;49.150;11.030;2022-07-25T07:04:09;7.53;;;6.72;;
10910;SDS011;5508;49.150;11.030;2022-07-25T07:07:10;12.32;;;7.10;;
10910;SDS011;5508;49.150;11.030;2022-07-25T07:10:11;11.95;;;7.03;;
10910;SDS011;5508;49.150;11.030;2022-07-25T07:13:12;8.15;;;7.25;;
10910;SDS011;5508;49.150;11.030;2022-07-25T07:16:14;7.32;;;6.57;;
10910;SDS011;5508;49.150;11.030;2022-07-25T07:19:14;10.15;;;6.85;;
10910;SDS011;5508;49.150;11.030;2022-07-25T07:22:15;7.30;;;5.82;;
10910;SDS011;5508;49.150;11.030;2022-07-25T07:25:16;9.05;;;6.63;;
10910;SDS011;5508;49.150;11.030;2022-07-25T07:28:18;6.82;;;6.13;;
10910;SDS011;5508;49.150;11.030;2022-07-25T07:31:19;6.55;;;5.95;;
10910;SDS011;5508;49.150;11.030;2022-07-25T07:34:19;7.53;;;6.40;;
10910;SDS011;5508;49.150;11.030;2022-07-25T07:37:20;7.38;;;6.68;;
10910;SDS011;5508;49.150;11.030;2022-07-25T07:40:22;6.40;;;5.80;;
10910;SDS011;5508;49.150;11.030;2022-07-25T07:43:24;6.70;;;6.10;;
10910;SDS011;5508;49.150;11.030;2022-07-25T07:46:24;6.65;;;5.75;;
10910;SDS011;5508;49.150;11.030;2022-07-25T07:49:25;9.70;;;6.00;;
10910;SDS011;5508;49.150;11.030;2022-07-25T07:52:25;6.95;;;6.32;;
10910;SDS011;5508;49.150;11.030;2022-07-25T07:55:26;6.15;;;5.53;;
10910;SDS011;5508;49.150;11.030;2022-07-25T07:58:47;6.60;;;6.00;;
10910;SDS011;5508;49.150;11.030;2022-07-25T08:01:47;7.03;;;6.43;;
10910;SDS011;5508;49.150;11.030;2022-07-25T08:04:48;7.25;;;6.03;;
10910;SDS011;5508;49.150;11.030;2022-07-25T08:07:48;6.80;;;6.20;;
10910;SDS011;5508;49.150;11.030;2022-07-25T08:10:50;7.07;;;6.28;;
10910;SDS011;5508;49.150;11.030;2022-07-25T08:13:51;6.68;;;6.07;;
10910;SDS011;5508;49.150;11.030;2022-07-25T08:16:51;6.65;;;6.05;;
10910;SDS011;5508;49.150;11.030;2022-07-25T08:19:52;8.18;;;6.22;;
10910;SDS011;5508;49.150;11.030;2022-07-25T08:22:53;7.50;;;6.40;;
10910;SDS011;5508;49.150;11.030;2022-07-25T08:25:53;8.23;;;5.90;;
10910;SDS011;5508;49.150;11.030;2022-07-25T08:28:54;6.88;;;6.28;;
10910;SDS011;5508;49.150;11.030;2022-07-25T08:31:55;6.53;;;5.88;;
10910;SDS011;5508;49.150;11.030;2022-07-25T08:34:55;7.00;;;6.05;;
10910;SDS011;5508;49.150;11.030;2022-07-25T08:37:57;7.35;;;6.65;;
10910;SDS011;5508;49.150;11.030;2022-07-25T08:40:58;6.88;;;6.25;;
10910;SDS011;5508;49.150;11.030;2022-07-25T08:44:00;9.07;;;6.25;;
10910;SDS011;5508;49.150;11.030;2022-07-25T08:47:02;8.45;;;6.30;;
10910;SDS011;5508;49.150;11.030;2022-07-25T08:50:03;6.80;;;6.20;;
10910;SDS011;5508;49.150;11.030;2022-07-25T08:53:05;6.47;;;5.88;;
10910;SDS011;5508;49.150;11.030;2022-07-25T08:56:06;6.78;;;6.10;;
10910;SDS011;5508;49.150;11.030;2022-07-25T08:59:08;6.65;;;5.97;;
10910;SDS011;5508;49.150;11.030;2022-07-25T09:02:12;7.13;;;6.43;;
10910;SDS011;5508;49.150;11.030;2022-07-25T09:05:13;7.13;;;6.53;;
10910;SDS011;5508;49.150;11.030;2022-07-25T09:08:16;8.30;;;6.55;;
10910;SDS011;5508;49.150;11.030;2022-07-25T09:11:30;7.57;;;6.88;;
10910;SDS011;5508;49.150;11.030;2022-07-25T09:14:41;6.63;;;6.13;;
10910;SDS011;5508;49.150;11.030;2022-07-25T09:17:50;6.60;;;6.05;;
10910;SDS011;5508;49.150;11.030;2022-07-25T09:20:52;6.90;;;6.30;;
10910;SDS011;5508;49.150;11.030;2022-07-25T09:24:06;7.40;;;6.15;;
10910;SDS011;5508;49.150;11.030;2022-07-25T09:27:17;7.35;;;6.55;;
10910;SDS011;5508;49.150;11.030;2022-07-25T09:30:18;9.45;;;7.32;;
10910;SDS011;5508;49.150;11.030;2022-07-25T09:33:19;8.80;;;7.20;;
10910;SDS011;5508;49.150;11.030;2022-07-25T09:36:21;7.50;;;6.75;;
10910;SDS011;5508;49.150;11.030;2022-07-25T09:39:35;8.82;;;6.45;;
10910;SDS011;5508;49.150;11.030;2022-07-25T09:42:49;7.55;;;6.60;;
10910;SDS011;5508;49.150;11.030;2022-07-25T09:45:50;7.85;;;7.15;;
10910;SDS011;5508;49.150;11.030;2022-07-25T09:48:55;7.10;;;6.50;;
10910;SDS011;5508;49.150;11.030;2022-07-25T09:51:57;7.38;;;6.63;;
10910;SDS011;5508;49.150;11.030;2022-07-25T09:55:00;7.60;;;7.00;;
10910;SDS011;5508;49.150;11.030;2022-07-25T09:58:02;8.65;;;6.10;;
10910;SDS011;5508;49.150;11.030;2022-07-25T10:01:04;7.30;;;6.60;;
10910;SDS011;5508;49.150;11.030;2022-07-25T10:04:08;7.13;;;6.53;;
10910;SDS011;5508;49.150;11.030;2022-07-25T10:07:15;7.40;;;6.65;;
10910;SDS011;5508;49.150;11.030;2022-07-25T10:13:28;6.90;;;6.28;;
10910;SDS011;5508;49.150;11.030;2022-07-25T10:16:43;7.28;;;6.63;;
10910;SDS011;5508;49.150;11.030;2022-07-25T10:19:45;6.63;;;6.03;;
10910;SDS011;5508;49.150;11.030;2022-07-25T10:22:47;6.57;;;5.97;;
10910;SDS011;5508;49.150;11.030;2022-07-25T10:29:20;7.75;;;6.20;;
10910;SDS011;5508;49.150;11.030;2022-07-25T10:32:31;6.25;;;5.65;;
10910;SDS011;5508;49.150;11.030;2022-07-25T10:35:34;7.03;;;6.20;;
10910;SDS011;5508;49.150;11.030;2022-07-25T10:38:37;7.22;;;6.63;;
10910;SDS011;5508;49.150;11.030;2022-07-25T10:41:42;8.15;;;6.80;;
10910;SDS011;5508;49.150;11.030;2022-07-25T10:44:49;7.70;;;7.00;;
10910;SDS011;5508;49.150;11.030;2022-07-25T10:47:53;8.23;;;7.53;;
10910;SDS011;5508;49.150;11.030;2022-07-25T10:50:58;8.02;;;7.25;;
10910;SDS011;5508;49.150;11.030;2022-07-25T10:53:59;7.28;;;6.68;;
10910;SDS011;5508;49.150;11.030;2022-07-25T10:57:13;7.20;;;6.45;;
10910;SDS011;5508;49.150;11.030;2022-07-25T11:00:14;6.95;;;6.35;;
10910;SDS011;5508;49.150;11.030;2022-07-25T11:03:15;6.93;;;6.32;;
10910;SDS011;5508;49.150;11.030;2022-07-25T11:06:16;6.85;;;5.68;;
10910;SDS011;5508;49.150;11.030;2022-07-25T11:09:38;6.68;;;6.07;;
10910;SDS011;5508;49.150;11.030;2022-07-25T11:12:43;5.72;;;5.28;;
10910;SDS011;5508;49.150;11.030;2022-07-25T11:15:43;6.32;;;5.35;;
10910;SDS011;5508;49.150;11.030;2022-07-25T11:18:45;6.07;;;5.55;;
10910;SDS011;5508;49.150;11.030;2022-07-25T11:21:47;6.60;;;6.00;;
10910;SDS011;5508;49.150;11.030;2022-07-25T11:24:49;5.95;;;5.38;;
10910;SDS011;5508;49.150;11.030;2022-07-25T11:27:56;6.40;;;5.80;;
10910;SDS011;5508;49.150;11.030;2022-07-25T11:31:03;6.22;;;5.13;;
10910;SDS011;5508;49.150;11.030;2022-07-25T11:34:04;6.03;;;5.43;;
10910;SDS011;5508;49.150;11.030;2022-07-25T11:37:05;6.57;;;5.97;;
10910;SDS011;5508;49.150;11.030;2022-07-25T11:40:07;6.63;;;6.13;;
10910;SDS011;5508;49.150;11.030;2022-07-25T11:43:17;6.45;;;5.85;;
10910;SDS011;5508;49.150;11.030;2022-07-25T11:46:21;6.50;;;6.00;;
10910;SDS011;5508;49.150;11.030;2022-07-25T11:49:22;8.00;;;6.43;;
10910;SDS011;5508;49.150;11.030;2022-07-25T11:52:25;6.05;;;5.55;;
10910;SDS011;5508;49.150;11.030;2022-07-25T11:55:37;6.95;;;6.35;;
10910;SDS011;5508;49.150;11.030;2022-07-25T11:58:39;6.95;;;6.35;;
10910;SDS011;5508;49.150;11.030;2022-07-25T12:01:41;6.60;;;5.90;;
10910;SDS011;5508;49.150;11.030;2022-07-25T12:04:51;7.00;;;6.28;;
10910;SDS011;5508;49.150;11.030;2022-07-25T12:07:53;8.60;;;6.40;;
10910;SDS011;5508;49.150;11.030;2022-07-25T12:10:54;7.07;;;6.13;;
10910;SDS011;5508;49.150;11.030;2022-07-25T12:14:01;7.15;;;6.53;;
10910;SDS011;5508;49.150;11.030;2022-07-25T12:17:04;6.95;;;6.30;;
10910;SDS011;5508;49.150;11.030;2022-07-25T12:20:09;7.45;;;6.75;;
10910;SDS011;5508;49.150;11.030;2022-07-25T12:23:14;7.03;;;6.32;;
10910;SDS011;5508;49.150;11.030;2022-07-25T12:26:15;6.70;;;6.20;;
10910;SDS011;5508;49.150;11.030;2022-07-25T12:29:16;6.50;;;5.90;;
10910;SDS011;5508;49.150;11.030;2022-07-25T12:32:16;6.40;;;5.90;;
10910;SDS011;5508;49.150;11.030;2022-07-25T12:35:17;6.78;;;6.18;;
10910;SDS011;5508;49.150;11.030;2022-07-25T12:38:17;6.28;;;5.70;;
10910;SDS011;5508;49.150;11.030;2022-07-25T12:41:18;6.78;;;5.80;;
10910;SDS011;5508;49.150;11.030;2022-07-25T12:44:21;5.65;;;5.20;;
10910;SDS011;5508;49.150;11.030;2022-07-25T12:47:22;5.80;;;5.30;;
10910;SDS011;5508;49.150;11.030;2022-07-25T12:50:23;3.90;;;3.60;;
10910;SDS011;5508;49.150;11.030;2022-07-25T12:53:26;4.35;;;4.00;;
10910;SDS011;5508;49.150;11.030;2022-07-25T12:56:27;5.13;;;4.63;;
10910;SDS011;5508;49.150;11.030;2022-07-25T12:59:27;4.35;;;3.97;;
10910;SDS011;5508;49.150;11.030;2022-07-25T13:02:28;4.22;;;3.83;;
10910;SDS011;5508;49.150;11.030;2022-07-25T13:05:28;4.35;;;3.95;;
10910;SDS011;5508;49.150;11.030;2022-07-25T13:08:29;4.55;;;4.15;;
10910;SDS011;5508;49.150;11.030;2022-07-25T13:11:30;4.72;;;4.32;;
10910;SDS011;5508;49.150;11.030;2022-07-25T13:14:30;4.35;;;4.00;;
10910;SDS011;5508;49.150;11.030;2022-07-25T13:17:31;5.18;;;3.90;;
10910;SDS011;5508;49.150;11.030;2022-07-25T13:20:32;4.30;;;4.00;;
10910;SDS011;5508;49.150;11.030;2022-07-25T13:23:35;5.35;;;4.72;;
10910;SDS011;5508;49.150;11.030;2022-07-25T13:26:36;5.15;;;4.30;;
10910;SDS011;5508;49.150;11.030;2022-07-25T13:29:38;5.68;;;4.68;;
10910;SDS011;5508;49.150;11.030;2022-07-25T13:32:39;7.03;;;4.20;;
10910;SDS011;5508;49.150;11.030;2022-07-25T13:35:39;4.60;;;4.20;;
10910;SDS011;5508;49.150;11.030;2022-07-25T13:38:40;4.35;;;4.05;;
10910;SDS011;5508;49.150;11.030;2022-07-25T13:41:42;4.13;;;3.83;;
10910;SDS011;5508;49.150;11.030;2022-07-25T13:44:42;4.13;;;3.70;;
10910;SDS011;5508;49.150;11.030;2022-07-25T13:47:43;3.80;;;3.50;;
10910;SDS011;5508;49.150;11.030;2022-07-25T13:50:44;3.70;;;3.40;;
10910;SDS011;5508;49.150;11.030;2022-07-25T13:53:44;4.78;;;3.65;;
10910;SDS011;5508;49.150;11.030;2022-07-25T13:56:45;3.88;;;3.58;;
10910;SDS011;5508;49.150;11.030;2022-07-25T13:59:46;5.20;;;3.53;;
10910;SDS011;5508;49.150;11.030;2022-07-25T14:02:46;3.63;;;3.33;;
10910;SDS011;5508;49.150;11.030;2022-07-25T14:05:47;4.68;;;3.10;;
10910;SDS011;5508;49.150;11.030;2022-07-25T14:08:48;3.60;;;3.30;;
10910;SDS011;5508;49.150;11.030;2022-07-25T14:11:48;3.83;;;3.50;;
10910;SDS011;5508;49.150;11.030;2022-07-25T14:14:49;4.25;;;3.20;;
10910;SDS011;5508;49.150;11.030;2022-07-25T14:17:49;3.40;;;3.10;;
10910;SDS011;5508;49.150;11.030;2022-07-25T14:20:50;4.20;;;3.70;;
10910;SDS011;5508;49.150;11.030;2022-07-25T14:23:50;4.22;;;3.72;;
10910;SDS011;5508;49.150;11.030;2022-07-25T14:26:51;6.18;;;3.85;;
10910;SDS011;5508;49.150;11.030;2022-07-25T14:29:52;3.80;;;3.50;;
10910;SDS011;5508;49.150;11.030;2022-07-25T14:32:53;4.28;;;3.88;;
10910;SDS011;5508;49.150;11.030;2022-07-25T14:35:54;4.22;;;3.35;;
10910;SDS011;5508;49.150;11.030;2022-07-25T14:38:55;4.72;;;4.32;;
10910;SDS011;5508;49.150;11.030;2022-07-25T14:41:55;4.20;;;3.90;;
10910;SDS011;5508;49.150;11.030;2022-07-25T14:44:58;4.50;;;4.07;;
10910;SDS011;5508;49.150;11.030;2022-07-25T14:47:59;3.58;;;3.28;;
10910;SDS011;5508;49.150;11.030;2022-07-25T14:51:04;4.03;;;3.72;;
10910;SDS011;5508;49.150;11.030;2022-07-25T14:54:05;4.38;;;3.70;;
10910;SDS011;5508;49.150;11.030;2022-07-25T14:57:07;4.25;;;3.85;;
10910;SDS011;5508;49.150;11.030;2022-07-25T15:00:08;4.15;;;3.70;;
10910;SDS011;5508;49.150;11.030;2022-07-25T15:03:09;4.82;;;3.90;;
10910;SDS011;5508;49.150;11.030;2022-07-25T15:06:10;4.43;;;4.13;;
10910;SDS011;5508;49.150;11.030;2022-07-25T15:09:11;4.70;;;4.30;;
10910;SDS011;5508;49.150;11.030;2022-07-25T15:12:11;4.88;;;4.20;;
10910;SDS011;5508;49.150;11.030;2022-07-25T15:15:13;4.75;;;4.30;;
10910;SDS011;5508;49.150;11.030;2022-07-25T15:18:14;4.60;;;4.30;;
10910;SDS011;5508;49.150;11.030;2022-07-25T15:21:14;5.07;;;4.43;;
10910;SDS011;5508;49.150;11.030;2022-07-25T15:24:15;5.43;;;5.03;;
10910;SDS011;5508;49.150;11.030;2022-07-25T15:27:15;5.22;;;4.82;;
10910;SDS011;5508;49.150;11.030;2022-07-25T15:30:16;5.10;;;4.70;;
10910;SDS011;5508;49.150;11.030;2022-07-25T15:33:17;5.43;;;5.00;;
10910;SDS011;5508;49.150;11.030;2022-07-25T15:36:18;5.20;;;4.80;;
10910;SDS011;5508;49.150;11.030;2022-07-25T15:39:19;4.75;;;4.43;;
10910;SDS011;5508;49.150;11.030;2022-07-25T15:42:22;5.78;;;4.93;;
10910;SDS011;5508;49.150;11.030;2022-07-25T15:45:22;6.40;;;5.57;;
10910;SDS011;5508;49.150;11.030;2022-07-25T15:48:23;5.53;;;5.03;;
10910;SDS011;5508;49.150;11.030;2022-07-25T15:51:23;5.82;;;5.32;;
10910;SDS011;5508;49.150;11.030;2022-07-25T15:54:24;5.95;;;5.35;;
10910;SDS011;5508;49.150;11.030;2022-07-25T15:57:25;12.60;;;5.32;;
10910;SDS011;5508;49.150;11.030;2022-07-25T16:00:26;6.20;;;5.03;;
10910;SDS011;5508;49.150;11.030;2022-07-25T16:03:27;5.90;;;5.40;;
10910;SDS011;5508;49.150;11.030;2022-07-25T16:06:27;7.80;;;5.00;;
10910;SDS011;5508;49.150;11.030;2022-07-25T16:09:28;5.90;;;5.30;;
10910;SDS011;5508;49.150;11.030;2022-07-25T16:12:29;8.27;;;5.18;;
10910;SDS011;5508;49.150;11.030;2022-07-25T16:15:29;5.93;;;5.38;;
10910;SDS011;5508;49.150;11.030;2022-07-25T16:18:30;6.97;;;5.25;;
10910;SDS011;5508;49.150;11.030;2022-07-25T16:21:31;8.88;;;4.90;;
10910;SDS011;5508;49.150;11.030;2022-07-25T16:24:31;5.70;;;5.05;;
10910;SDS011;5508;49.150;11.030;2022-07-25T16:27:32;5.40;;;4.88;;
10910;SDS011;5508;49.150;11.030;2022-07-25T16:30:32;5.53;;;5.03;;
10910;SDS011;5508;49.150;11.030;2022-07-25T16:33:33;5.88;;;5.28;;
10910;SDS011;5508;49.150;11.030;2022-07-25T16:36:34;5.20;;;4.70;;
10910;SDS011;5508;49.150;11.030;2022-07-25T16:39:35;7.60;;;5.53;;
10910;SDS011;5508;49.150;11.030;2022-07-25T16:42:35;5.75;;;4.80;;
10910;SDS011;5508;49.150;11.030;2022-07-25T16:45:36;8.27;;;5.53;;
10910;SDS011;5508;49.150;11.030;2022-07-25T16:48:37;13.25;;;4.90;;
10910;SDS011;5508;49.150;11.030;2022-07-25T16:51:37;5.82;;;5.22;;
10910;SDS011;5508;49.150;11.030;2022-07-25T16:54:38;9.02;;;5.88;;
10910;SDS011;5508;49.150;11.030;2022-07-25T16:57:38;6.28;;;4.85;;
10910;SDS011;5508;49.150;11.030;2022-07-25T17:00:39;8.32;;;5.05;;
10910;SDS011;5508;49.150;11.030;2022-07-25T17:03:40;6.53;;;5.22;;
10910;SDS011;5508;49.150;11.030;2022-07-25T17:06:40;9.52;;;7.43;;
10910;SDS011;5508;49.150;11.030;2022-07-25T17:09:41;7.93;;;5.57;;
10910;SDS011;5508;49.150;11.030;2022-07-25T17:12:41;5.25;;;4.85;;
10910;SDS011;5508;49.150;11.030;2022-07-25T17:15:42;6.07;;;5.47;;
10910;SDS011;5508;49.150;11.030;2022-07-25T17:18:44;10.60;;;6.90;;
10910;SDS011;5508;49.150;11.030;2022-07-25T17:21:44;6.28;;;5.68;;
10910;SDS011;5508;49.150;11.030;2022-07-25T17:24:45;13.20;;;12.10;;
10910;SDS011;5508;49.150;11.030;2022-07-25T17:27:45;7.05;;;6.30;;
10910;SDS011;5508;49.150;11.030;2022-07-25T17:30:46;6.00;;;5.40;;
10910;SDS011;5508;49.150;11.030;2022-07-25T17:33:47;8.40;;;5.85;;
10910;SDS011;5508;49.150;11.030;2022-07-25T17:36:47;6.20;;;5.60;;
10910;SDS011;5508;49.150;11.030;2022-07-25T17:39:49;7.70;;;5.32;;
10910;SDS011;5508;49.150;11.030;2022-07-25T17:42:49;6.40;;;5.80;;
10910;SDS011;5508;49.150;11.030;2022-07-25T17:45:50;7.80;;;6.28;;
10910;SDS011;5508;49.150;11.030;2022-07-25T17:48:50;6.68;;;6.00;;
10910;SDS011;5508;49.150;11.030;2022-07-25T17:51:51;8.65;;;7.85;;
10910;SDS011;5508;49.150;11.030;2022-07-25T17:54:52;58.05;;;9.48;;
10910;SDS011;5508;49.150;11.030;2022-07-25T17:57:52;8.13;;;7.18;;
10910;SDS011;5508;49.150;11.030;2022-07-25T18:00:53;52.85;;;8.73;;
10910;SDS011;5508;49.150;11.030;2022-07-25T18:03:54;6.82;;;5.65;;
10910;SDS011;5508;49.150;11.030;2022-07-25T18:06:54;11.60;;;6.60;;
10910;SDS011;5508;49.150;11.030;2022-07-25T18:09:55;11.25;;;6.82;;